createdAt,value
2023-01-18T00:00:23.379Z,8.20
2023-01-18T00:02:50.361Z,7.80
2023-01-18T00:05:17.364Z,7.63
2023-01-18T00:07:44.325Z,7.50
2023-01-18T00:10:11.436Z,6.50
2023-01-18T00:12:38.539Z,8.63
2023-01-18T00:15:06.190Z,8.32
2023-01-18T00:17:33.105Z,6.88
2023-01-18T00:19:59.965Z,7.40
2023-01-18T00:22:26.969Z,6.93
2023-01-18T00:24:53.738Z,9.25
2023-01-18T00:27:20.604Z,7.00
2023-01-18T00:29:47.525Z,7.47
2023-01-18T00:32:14.460Z,8.53
2023-01-18T00:34:41.348Z,7.85
2023-01-18T00:37:08.274Z,7.82
2023-01-18T00:39:35.089Z,6.65
2023-01-18T00:42:01.937Z,8.10
2023-01-18T00:44:28.796Z,8.67
2023-01-18T00:46:55.640Z,8.30
2023-01-18T00:49:23.256Z,9.35
2023-01-18T00:51:50.304Z,10.45
2023-01-18T00:54:17.639Z,8.80
2023-01-18T00:56:44.778Z,12.13
2023-01-18T00:59:11.594Z,9.45
2023-01-18T01:01:38.632Z,9.90
2023-01-18T01:04:05.663Z,8.98
2023-01-18T01:06:34.876Z,10.30
2023-01-18T01:09:01.702Z,9.37
2023-01-18T01:11:28.643Z,11.55
2023-01-18T01:13:55.461Z,11.55
2023-01-18T01:16:23.380Z,9.32
2023-01-18T01:18:50.415Z,10.57
2023-01-18T01:21:17.330Z,11.07
2023-01-18T01:23:44.228Z,10.18
2023-01-18T01:26:11.623Z,7.63
2023-01-18T01:28:43.355Z,8.93
2023-01-18T01:31:15.520Z,9.55
2023-01-18T01:33:42.560Z,12.13
2023-01-18T01:36:13.654Z,9.32
2023-01-18T01:38:40.749Z,10.05
2023-01-18T01:41:12.080Z,11.15
2023-01-18T01:43:45.014Z,9.60
2023-01-18T01:46:44.065Z,11.67
2023-01-18T01:49:24.816Z,13.27
2023-01-18T01:51:55.641Z,10.25
2023-01-18T01:54:29.895Z,9.77
2023-01-18T01:57:06.960Z,8.50
2023-01-18T01:59:39.642Z,9.10
2023-01-18T02:02:07.608Z,10.70
2023-01-18T02:04:35.789Z,9.73
2023-01-18T02:07:02.830Z,8.63
2023-01-18T02:09:29.862Z,9.25
2023-01-18T02:11:56.944Z,8.93
2023-01-18T02:14:26.752Z,12.35
2023-01-18T02:17:30.333Z,11.18
2023-01-18T02:20:34.838Z,10.75
2023-01-18T02:23:22.982Z,10.45
2023-01-18T02:25:55.777Z,12.77
2023-01-18T02:28:36.761Z,10.75
2023-01-18T02:34:24.822Z,10.45
2023-01-18T02:37:12.766Z,11.85
2023-01-18T02:39:55.652Z,12.90
2023-01-18T02:42:27.417Z,11.60
2023-01-18T02:44:54.257Z,11.25
2023-01-18T02:47:23.407Z,10.32
2023-01-18T02:49:50.382Z,12.63
2023-01-18T02:52:41.352Z,10.43
2023-01-18T02:55:17.831Z,13.43
2023-01-18T02:57:45.989Z,10.77
2023-01-18T03:00:15.380Z,10.00
2023-01-18T03:02:42.613Z,11.95
2023-01-18T03:05:11.886Z,11.60
2023-01-18T03:07:58.857Z,12.93
2023-01-18T03:10:31.448Z,11.07
2023-01-18T03:13:13.026Z,8.68
2023-01-18T03:15:49.239Z,11.63
2023-01-18T03:18:42.058Z,10.77
2023-01-18T03:21:08.907Z,9.75
2023-01-18T03:23:39.956Z,10.43
2023-01-18T03:26:19.105Z,10.25
2023-01-18T03:28:49.241Z,7.47
2023-01-18T03:31:42.308Z,7.33
2023-01-18T03:34:43.528Z,8.40
2023-01-18T03:37:16.286Z,11.18
2023-01-18T03:39:46.973Z,9.57
2023-01-18T03:42:19.726Z,9.55
2023-01-18T03:45:31.479Z,8.07
2023-01-18T03:47:59.018Z,8.25
2023-01-18T03:50:51.943Z,10.73
2023-01-18T03:53:32.646Z,11.30
2023-01-18T03:56:10.117Z,10.05
2023-01-18T03:58:37.132Z,10.23
2023-01-18T04:01:04.755Z,10.95
2023-01-18T04:03:33.453Z,9.85
2023-01-18T04:06:02.931Z,11.95
2023-01-18T04:08:29.822Z,9.73
2023-01-18T04:10:56.722Z,11.60
2023-01-18T04:13:23.634Z,10.45
2023-01-18T04:15:50.675Z,10.70
2023-01-18T04:18:17.479Z,11.82
2023-01-18T04:20:44.358Z,11.73
2023-01-18T04:23:11.267Z,10.13
2023-01-18T04:25:38.249Z,10.93
2023-01-18T04:28:05.300Z,10.60
2023-01-18T04:30:32.415Z,9.65
2023-01-18T04:32:59.712Z,11.25
2023-01-18T04:35:27.313Z,9.17
2023-01-18T04:37:54.221Z,7.82
2023-01-18T04:40:21.044Z,8.23
2023-01-18T04:42:54.334Z,7.47
2023-01-18T04:45:21.308Z,7.55
2023-01-18T04:47:48.181Z,7.47
2023-01-18T04:50:15.147Z,7.07
2023-01-18T04:52:42.056Z,9.50
2023-01-18T04:55:09.430Z,7.95
2023-01-18T04:57:36.320Z,8.68
2023-01-18T05:00:03.941Z,6.40
2023-01-18T05:02:31.023Z,10.32
2023-01-18T05:04:57.964Z,8.88
2023-01-18T05:07:25.528Z,7.60
2023-01-18T05:09:52.600Z,7.25
2023-01-18T05:12:19.442Z,7.23
2023-01-18T05:14:46.335Z,9.95
2023-01-18T05:17:13.209Z,8.35
2023-01-18T05:19:40.155Z,7.57
2023-01-18T05:22:09.963Z,7.90
2023-01-18T05:24:36.873Z,9.43
2023-01-18T05:27:03.933Z,9.32
2023-01-18T05:29:30.898Z,9.73
2023-01-18T05:31:57.682Z,8.00
2023-01-18T05:34:24.681Z,7.57
2023-01-18T05:36:51.541Z,8.83
2023-01-18T05:39:18.598Z,8.95
2023-01-18T05:41:45.516Z,8.60
2023-01-18T05:44:12.379Z,9.50
2023-01-18T05:46:39.342Z,11.98
2023-01-18T05:49:06.200Z,9.90
2023-01-18T05:51:33.102Z,9.75
2023-01-18T05:54:00.095Z,10.10
2023-01-18T05:56:26.971Z,10.23
2023-01-18T05:58:53.927Z,10.40
2023-01-18T06:01:21.132Z,10.20
2023-01-18T06:03:48.094Z,10.23
2023-01-18T06:06:14.978Z,10.50
2023-01-18T06:08:41.951Z,9.85
2023-01-18T06:11:10.430Z,12.00
2023-01-18T06:13:37.451Z,11.23
2023-01-18T06:16:04.664Z,14.20
2023-01-18T06:18:33.213Z,11.70
2023-01-18T06:21:02.354Z,13.52
2023-01-18T06:23:30.485Z,10.40
2023-01-18T06:25:57.933Z,10.00
2023-01-18T06:28:24.943Z,10.30
2023-01-18T06:30:56.111Z,13.20
2023-01-18T06:33:23.885Z,13.02
2023-01-18T06:35:51.331Z,12.55
2023-01-18T06:38:18.122Z,11.67
2023-01-18T06:40:45.089Z,14.02
2023-01-18T06:43:12.007Z,14.38
2023-01-18T06:45:38.986Z,13.70
2023-01-18T06:48:06.060Z,15.30
2023-01-18T06:50:32.969Z,13.23
2023-01-18T06:53:00.230Z,16.23
2023-01-18T06:55:27.336Z,13.93
2023-01-18T06:57:54.169Z,15.63
2023-01-18T07:00:21.496Z,13.68
2023-01-18T07:02:48.306Z,13.83
2023-01-18T07:05:15.303Z,14.82
2023-01-18T07:07:42.209Z,13.98
2023-01-18T07:10:09.843Z,13.13
2023-01-18T07:12:36.723Z,12.95
2023-01-18T07:15:20.217Z,13.33
2023-01-18T07:17:47.962Z,14.35
2023-01-18T07:20:14.841Z,14.50
2023-01-18T07:22:42.003Z,14.13
2023-01-18T07:25:09.474Z,13.45
2023-01-18T07:27:36.345Z,13.20
2023-01-18T07:30:03.385Z,14.75
2023-01-18T07:32:30.175Z,14.05
2023-01-18T07:34:59.394Z,13.07
2023-01-18T07:37:26.441Z,15.15
2023-01-18T07:39:53.233Z,15.53
2023-01-18T07:42:20.062Z,15.50
2023-01-18T07:44:46.906Z,15.27
2023-01-18T07:47:13.813Z,14.02
2023-01-18T07:49:40.604Z,12.93
2023-01-18T07:52:07.436Z,13.27
2023-01-18T07:54:34.287Z,15.07
2023-01-18T07:57:01.105Z,14.55
2023-01-18T07:59:27.913Z,13.68
2023-01-18T08:01:54.821Z,14.13
2023-01-18T08:04:21.614Z,16.37
2023-01-18T08:06:48.426Z,14.80
2023-01-18T08:09:15.257Z,15.00
2023-01-18T08:11:42.103Z,15.40
2023-01-18T08:14:08.958Z,13.38
2023-01-18T08:16:35.972Z,15.33
2023-01-18T08:19:02.921Z,14.75
2023-01-18T08:21:29.734Z,7.82
2023-01-18T08:23:56.694Z,6.38
2023-01-18T08:26:23.646Z,6.25
2023-01-18T08:28:50.573Z,7.47
2023-01-18T08:31:20.270Z,6.13
2023-01-18T08:33:48.266Z,6.43
2023-01-18T08:36:17.936Z,6.93
2023-01-18T08:38:48.955Z,5.88
2023-01-18T08:41:15.819Z,6.50
2023-01-18T08:43:42.897Z,6.65
2023-01-18T08:46:10.034Z,6.05
2023-01-18T08:48:36.989Z,6.30
2023-01-18T08:51:04.414Z,7.95
2023-01-18T08:53:31.885Z,7.73
2023-01-18T08:55:58.749Z,8.93
2023-01-18T08:58:25.804Z,5.68
2023-01-18T09:00:52.686Z,6.30
2023-01-18T09:03:21.215Z,9.48
2023-01-18T09:05:48.189Z,5.27
2023-01-18T09:08:15.442Z,6.03
2023-01-18T09:10:42.346Z,7.05
2023-01-18T09:13:09.196Z,5.40
2023-01-18T09:15:36.122Z,8.00
2023-01-18T09:18:03.058Z,7.27
2023-01-18T09:20:29.903Z,6.75
2023-01-18T09:22:56.969Z,6.75
2023-01-18T09:25:24.032Z,7.40
2023-01-18T09:27:50.860Z,7.35
2023-01-18T09:30:17.867Z,7.07
2023-01-18T09:32:44.763Z,6.38
2023-01-18T09:35:11.812Z,6.68
2023-01-18T09:37:38.739Z,7.15
2023-01-18T09:40:06.193Z,6.88
2023-01-18T09:42:41.364Z,6.73
2023-01-18T09:45:25.911Z,8.07
2023-01-18T09:48:00.257Z,7.70
2023-01-18T09:50:27.169Z,8.45
2023-01-18T09:53:05.766Z,7.18
2023-01-18T09:56:11.531Z,6.30
2023-01-18T09:59:05.243Z,7.93
2023-01-18T10:01:35.323Z,5.68
2023-01-18T10:04:05.208Z,6.85
2023-01-18T10:06:47.495Z,7.70
2023-01-18T10:09:28.944Z,6.57
2023-01-18T10:12:30.327Z,5.80
2023-01-18T10:15:06.750Z,6.97
2023-01-18T10:17:42.339Z,5.63
2023-01-18T10:20:25.286Z,8.70
2023-01-18T10:23:12.234Z,6.57
2023-01-18T10:26:06.466Z,6.65
2023-01-18T10:28:49.789Z,8.00
2023-01-18T10:31:22.623Z,5.25
2023-01-18T10:33:55.449Z,5.80
2023-01-18T10:36:30.549Z,7.90
2023-01-18T10:38:57.515Z,5.93
2023-01-18T10:41:33.281Z,5.70
2023-01-18T10:44:00.199Z,5.97
2023-01-18T10:46:27.115Z,7.47
2023-01-18T10:48:55.217Z,6.57
2023-01-18T10:51:30.883Z,5.57
2023-01-18T10:53:58.299Z,5.93
2023-01-18T10:56:27.235Z,5.93
2023-01-18T10:58:58.969Z,6.28
2023-01-18T11:01:35.152Z,5.20
2023-01-18T11:04:23.017Z,6.00
2023-01-18T11:06:56.133Z,7.15
2023-01-18T11:09:34.972Z,8.57
2023-01-18T11:12:43.236Z,4.18
2023-01-18T11:15:16.115Z,7.33
2023-01-18T11:17:52.080Z,5.80
2023-01-18T11:20:22.361Z,5.68
2023-01-18T11:22:55.344Z,5.72
2023-01-18T11:25:22.827Z,4.18
2023-01-18T11:27:50.032Z,6.33
2023-01-18T11:30:24.396Z,5.65
2023-01-18T11:32:52.402Z,5.07
2023-01-18T11:35:27.744Z,4.80
2023-01-18T11:38:02.991Z,4.80
2023-01-18T11:40:32.682Z,3.97
2023-01-18T11:43:25.077Z,4.43
2023-01-18T11:46:06.422Z,5.40
2023-01-18T11:48:50.138Z,5.53
2023-01-18T11:51:37.214Z,5.78
2023-01-18T11:54:43.331Z,4.80
2023-01-18T11:57:11.379Z,4.75
2023-01-18T11:59:42.214Z,5.38
2023-01-18T12:03:06.317Z,5.05
2023-01-18T12:06:06.327Z,6.00
2023-01-18T12:09:09.619Z,4.83
2023-01-18T12:12:19.352Z,5.10
2023-01-18T12:14:49.171Z,7.45
2023-01-18T12:17:40.926Z,5.03
2023-01-18T12:20:27.599Z,6.88
2023-01-18T12:22:57.271Z,6.93
2023-01-18T12:26:12.573Z,6.43
2023-01-18T12:28:51.941Z,7.05
2023-01-18T12:31:51.443Z,6.50
2023-01-18T12:34:26.873Z,5.47
2023-01-18T12:37:14.929Z,4.23
2023-01-18T12:40:00.385Z,3.95
2023-01-18T12:42:39.043Z,6.13
2023-01-18T12:45:22.284Z,4.70
2023-01-18T12:48:06.118Z,8.20
2023-01-18T12:50:36.244Z,5.60
2023-01-18T12:53:10.815Z,5.15
2023-01-18T12:55:40.356Z,5.72
2023-01-18T12:58:18.598Z,5.10
2023-01-18T13:00:52.292Z,4.65
2023-01-18T13:03:25.310Z,3.37
2023-01-18T13:06:02.311Z,3.90
2023-01-18T13:08:49.868Z,5.20
2023-01-18T13:11:22.737Z,7.40
2023-01-18T13:13:55.476Z,3.40
2023-01-18T13:16:49.739Z,5.13
2023-01-18T13:19:25.090Z,4.43
2023-01-18T13:22:04.729Z,3.88
2023-01-18T13:24:52.531Z,4.50
2023-01-18T13:27:19.493Z,5.00
2023-01-18T13:29:46.763Z,5.37
2023-01-18T13:32:35.814Z,4.25
2023-01-18T13:35:20.990Z,7.13
2023-01-18T13:37:56.212Z,5.57
2023-01-18T13:40:52.013Z,4.00
2023-01-18T13:43:41.951Z,6.30
2023-01-18T13:46:08.959Z,5.32
2023-01-18T13:48:44.733Z,3.75
2023-01-18T13:51:40.761Z,5.22
2023-01-18T13:54:10.138Z,4.55
2023-01-18T13:56:38.570Z,4.93
2023-01-18T13:59:29.546Z,5.35
2023-01-18T14:02:25.792Z,4.78
2023-01-18T14:05:06.447Z,4.95
2023-01-18T14:07:44.239Z,3.80
2023-01-18T14:10:24.762Z,5.17
2023-01-18T14:12:54.419Z,6.68
2023-01-18T14:15:44.894Z,4.65
2023-01-18T14:18:25.601Z,5.90
2023-01-18T14:21:29.492Z,5.28
2023-01-18T14:24:08.795Z,7.00
2023-01-18T14:26:39.131Z,6.03
2023-01-18T14:29:07.599Z,4.00
2023-01-18T14:31:39.043Z,4.53
2023-01-18T14:34:30.554Z,5.90
2023-01-18T14:36:57.907Z,4.00
2023-01-18T14:39:27.990Z,4.70
2023-01-18T14:42:02.204Z,5.80
2023-01-18T14:44:56.812Z,4.55
2023-01-18T14:47:30.749Z,6.47
2023-01-18T14:49:58.248Z,6.00
2023-01-18T14:52:29.841Z,5.35
2023-01-18T14:54:56.929Z,7.50
2023-01-18T14:57:25.076Z,8.25
2023-01-18T14:59:57.083Z,23.70
2023-01-18T15:02:25.993Z,5.57
2023-01-18T15:05:14.527Z,6.10
2023-01-18T15:07:41.585Z,5.07
2023-01-18T15:10:09.613Z,5.90
2023-01-18T15:12:38.453Z,7.28
2023-01-18T15:15:17.663Z,8.77
2023-01-18T15:17:44.591Z,7.53
2023-01-18T15:20:15.400Z,7.75
2023-01-18T15:22:45.268Z,7.78
2023-01-18T15:25:20.347Z,9.75
2023-01-18T15:27:49.674Z,7.33
2023-01-18T15:30:17.099Z,10.02
2023-01-18T15:32:44.409Z,8.85
2023-01-18T15:35:15.820Z,8.60
2023-01-18T15:37:42.851Z,9.43
2023-01-18T15:40:15.608Z,8.43
2023-01-18T15:42:58.167Z,8.13
2023-01-18T15:45:36.218Z,40.45
2023-01-18T15:48:09.481Z,37.15
2023-01-18T15:50:46.819Z,13.82
2023-01-18T15:53:25.602Z,9.83
2023-01-18T15:55:55.258Z,9.65
2023-01-18T15:58:31.976Z,10.18
2023-01-18T16:01:05.950Z,11.38
2023-01-18T16:03:37.179Z,10.65
2023-01-18T16:06:09.003Z,8.70
2023-01-18T16:08:36.055Z,11.25
2023-01-18T16:11:02.970Z,13.80
2023-01-18T16:13:30.574Z,12.25
2023-01-18T16:16:17.317Z,10.82
2023-01-18T16:18:51.614Z,14.20
2023-01-18T16:21:29.769Z,8.05
2023-01-18T16:23:57.253Z,9.13
2023-01-18T16:26:30.559Z,10.98
2023-01-18T16:29:15.601Z,10.07
2023-01-18T16:31:44.274Z,11.13
2023-01-18T16:34:17.016Z,9.68
2023-01-18T16:36:43.904Z,7.18
2023-01-18T16:39:10.821Z,8.50
2023-01-18T16:41:37.613Z,9.20
2023-01-18T16:44:04.857Z,9.47
2023-01-18T16:46:33.721Z,13.95
2023-01-18T16:49:00.564Z,8.80
2023-01-18T16:51:28.306Z,13.45
2023-01-18T16:53:55.507Z,11.75
2023-01-18T16:56:22.583Z,12.27
2023-01-18T16:58:49.696Z,10.57
2023-01-18T17:01:16.651Z,9.98
2023-01-18T17:03:43.738Z,8.88
2023-01-18T17:06:19.216Z,10.82
2023-01-18T17:08:46.507Z,9.97
2023-01-18T17:11:15.014Z,8.13
2023-01-18T17:13:42.499Z,10.18
2023-01-18T17:16:18.844Z,12.75
2023-01-18T17:18:46.868Z,16.83
2023-01-18T17:21:13.949Z,15.77
2023-01-18T17:23:40.858Z,17.40
2023-01-18T17:26:09.891Z,12.15
2023-01-18T17:28:36.826Z,11.98
2023-01-18T17:31:03.811Z,9.57
2023-01-18T17:33:30.679Z,9.00
2023-01-18T17:35:57.491Z,12.07
2023-01-18T17:38:27.886Z,13.30
2023-01-18T17:40:56.973Z,13.52
2023-01-18T17:43:33.379Z,17.48
2023-01-18T17:46:05.940Z,11.67
2023-01-18T17:48:32.965Z,13.48
2023-01-18T17:50:59.800Z,19.45
2023-01-18T17:53:26.799Z,17.25
2023-01-18T17:55:53.778Z,19.25
2023-01-18T17:58:21.826Z,16.80
2023-01-18T18:00:48.730Z,15.95
2023-01-18T18:03:16.008Z,17.17
2023-01-18T18:05:43.225Z,15.35
2023-01-18T18:08:10.365Z,13.07
2023-01-18T18:10:37.411Z,14.07
2023-01-18T18:13:04.444Z,14.98
2023-01-18T18:15:31.456Z,12.93
2023-01-18T18:17:58.354Z,23.08
2023-01-18T18:20:25.304Z,25.75
2023-01-18T18:22:52.138Z,24.33
2023-01-18T18:25:19.503Z,20.75
2023-01-18T18:27:47.312Z,19.42
2023-01-18T18:30:15.642Z,20.35
2023-01-18T18:32:42.491Z,19.52
2023-01-18T18:35:23.745Z,19.93
2023-01-18T18:37:52.031Z,23.40
2023-01-18T18:40:19.128Z,16.58
2023-01-18T18:42:56.404Z,14.82
2023-01-18T18:45:27.567Z,15.45
2023-01-18T18:47:54.434Z,12.67
2023-01-18T18:50:21.632Z,11.73
2023-01-18T18:52:48.809Z,9.98
2023-01-18T18:55:15.862Z,9.93
2023-01-18T18:57:42.728Z,11.77
2023-01-18T19:00:10.345Z,8.80
2023-01-18T19:02:38.084Z,14.93
2023-01-18T19:05:05.675Z,9.10
2023-01-18T19:07:56.288Z,9.25
2023-01-18T19:10:25.487Z,11.80
2023-01-18T19:12:52.300Z,9.43
2023-01-18T19:15:19.173Z,8.80
2023-01-18T19:17:49.565Z,8.38
2023-01-18T19:20:18.205Z,8.68
2023-01-18T19:22:48.681Z,9.90
2023-01-18T19:25:16.467Z,9.37
2023-01-18T19:27:43.827Z,9.77
2023-01-18T19:30:12.588Z,15.50
2023-01-18T19:32:40.188Z,15.18
2023-01-18T19:35:07.802Z,10.77
2023-01-18T19:37:34.664Z,10.57
2023-01-18T19:40:01.605Z,12.13
2023-01-18T19:42:28.960Z,9.73
2023-01-18T19:44:59.272Z,9.40
2023-01-18T19:47:26.429Z,10.20
2023-01-18T19:49:53.369Z,11.03
2023-01-18T19:52:20.364Z,8.52
2023-01-18T19:54:47.249Z,11.68
2023-01-18T19:57:14.235Z,14.43
2023-01-18T19:59:41.169Z,12.45
2023-01-18T20:02:08.283Z,10.00
2023-01-18T20:04:35.364Z,7.38
2023-01-18T20:07:02.324Z,7.20
2023-01-18T20:09:42.151Z,8.70
2023-01-18T20:12:10.838Z,9.43
2023-01-18T20:14:41.380Z,11.67
2023-01-18T20:17:11.202Z,10.50
2023-01-18T20:19:38.144Z,8.32
2023-01-18T20:22:05.045Z,9.63
2023-01-18T20:24:34.063Z,7.45
2023-01-18T20:27:14.537Z,8.33
2023-01-18T20:29:42.626Z,8.50
2023-01-18T20:32:16.263Z,8.35
2023-01-18T20:34:47.710Z,6.57
2023-01-18T20:37:15.927Z,7.32
2023-01-18T20:39:42.989Z,7.93
2023-01-18T20:42:10.058Z,6.57
2023-01-18T20:44:37.593Z,7.50
2023-01-18T20:47:05.201Z,6.18
2023-01-18T20:49:39.367Z,5.70
2023-01-18T20:52:07.818Z,7.03
2023-01-18T20:54:36.648Z,10.80
2023-01-18T20:57:06.905Z,8.93
2023-01-18T20:59:33.785Z,6.85
2023-01-18T21:02:01.063Z,7.07
2023-01-18T21:04:28.092Z,6.90
2023-01-18T21:06:55.502Z,6.68
2023-01-18T21:09:22.342Z,8.43
2023-01-18T21:11:49.299Z,8.30
2023-01-18T21:14:16.134Z,8.70
2023-01-18T21:16:43.834Z,8.20
2023-01-18T21:19:10.806Z,8.40
2023-01-18T21:21:37.635Z,10.60
2023-01-18T21:24:04.700Z,7.93
2023-01-18T21:26:31.786Z,7.85
2023-01-18T21:28:59.362Z,6.00
2023-01-18T21:31:26.354Z,7.00
2023-01-18T21:33:54.585Z,8.07
2023-01-18T21:36:21.546Z,5.43
2023-01-18T21:38:48.792Z,7.18
2023-01-18T21:41:15.985Z,6.57
2023-01-18T21:43:42.896Z,6.03
2023-01-18T21:46:11.389Z,6.35
2023-01-18T21:48:38.381Z,6.50
2023-01-18T21:51:06.113Z,9.05
2023-01-18T21:53:32.920Z,7.60
2023-01-18T21:56:00.117Z,8.05
2023-01-18T21:58:26.932Z,7.18
2023-01-18T22:00:53.863Z,7.32
2023-01-18T22:03:20.822Z,8.18
2023-01-18T22:05:47.732Z,7.67
2023-01-18T22:08:14.667Z,7.38
2023-01-18T22:10:41.558Z,8.23
2023-01-18T22:13:08.428Z,8.05
2023-01-18T22:15:35.312Z,7.75
2023-01-18T22:18:02.554Z,6.47
2023-01-18T22:20:30.992Z,5.72
2023-01-18T22:22:58.535Z,7.45
2023-01-18T22:25:25.447Z,5.38
2023-01-18T22:27:52.299Z,5.55
2023-01-18T22:30:19.218Z,5.13
2023-01-18T22:32:46.234Z,6.53
2023-01-18T22:35:13.193Z,6.00
2023-01-18T22:37:40.043Z,6.95
2023-01-18T22:40:08.020Z,8.27
2023-01-18T22:42:34.890Z,6.67
2023-01-18T22:45:02.192Z,10.55
2023-01-18T22:47:30.112Z,7.45
2023-01-18T22:49:56.885Z,8.40
2023-01-18T22:52:23.847Z,8.80
2023-01-18T22:54:50.658Z,7.10
2023-01-18T22:57:17.483Z,8.80
2023-01-18T22:59:44.356Z,10.40
2023-01-18T23:02:11.282Z,7.43
2023-01-18T23:04:38.145Z,8.93
2023-01-18T23:07:05.077Z,9.00
2023-01-18T23:09:32.034Z,9.15
2023-01-18T23:11:58.979Z,7.15
2023-01-18T23:14:25.880Z,7.40
2023-01-18T23:16:52.809Z,6.68
2023-01-18T23:19:20.523Z,11.63
2023-01-18T23:21:47.914Z,7.45
2023-01-18T23:24:14.743Z,6.35
2023-01-18T23:26:42.521Z,10.05
2023-01-18T23:29:09.396Z,6.55
2023-01-18T23:31:36.478Z,8.40
2023-01-18T23:34:03.397Z,9.38
2023-01-18T23:36:30.354Z,7.45
2023-01-18T23:38:57.335Z,7.45
2023-01-18T23:41:24.268Z,9.32
2023-01-18T23:43:51.244Z,9.47
2023-01-18T23:46:18.127Z,8.65
2023-01-18T23:48:44.956Z,8.18
2023-01-18T23:51:11.838Z,7.65
2023-01-18T23:53:38.685Z,8.15
2023-01-18T23:56:05.750Z,9.90
2023-01-18T23:58:32.723Z,10.23
